Time;durP1;ratioP1;P1;durP2;ratioP2;P2;SDS_P1;SDS_P2;PMS_P1;PMS_P2;Temp;Humidity;BMP_temperature;BMP_pressure;BME280_temperature;BME280_humidity;BME280_pressure;Samples;Min_cycle;Max_cycle;Signal;HPM_P1;HPM_P2
2023/06/02 00:01:01;;;;;;;7.40;2.53;;;;;;;;;;5113447;28;20027;-72
2023/06/02 00:03:32;;;;;;;8.77;2.22;;;;;;;;;;5112187;28;20015;-70
2023/06/02 00:06:00;;;;;;;;;;;;;;;;;;5114035;28;20120;-63
2023/06/02 00:08:32;;;;;;;5.80;2.05;;;;;;;;;;5113567;28;19923;-68
2023/06/02 00:11:01;;;;;;;12.18;3.35;;;;;;;;;;5110074;27;20103;-72
2023/06/02 00:13:27;;;;;;;10.10;3.03;;;;;;;;;;5088941;28;20107;-72
2023/06/02 00:15:52;;;;;;;11.52;3.67;;;;;;;;;;5090258;28;20077;-74
2023/06/02 00:18:20;;;;;;;8.48;3.25;;;;;;;;;;5093898;28;20028;-72
2023/06/02 00:20:46;;;;;;;10.13;3.05;;;;;;;;;;5094137;28;20028;-73
2023/06/02 00:23:12;;;;;;;15.23;3.05;;;;;;;;;;5094031;28;20103;-73
2023/06/02 00:25:39;;;;;;;8.80;2.88;;;;;;;;;;5093921;28;20170;-74
2023/06/02 00:28:04;;;;;;;9.63;3.10;;;;;;;;;;5091661;28;20052;-73
2023/06/02 00:30:30;;;;;;;9.57;2.40;;;;;;;;;;5091199;28;20125;-74
2023/06/02 00:32:56;;;;;;;9.73;2.58;;;;;;;;;;5091224;28;20024;-72
2023/06/02 00:35:21;;;;;;;10.85;2.30;;;;;;;;;;5091315;28;20028;-73
2023/06/02 00:37:47;;;;;;;12.32;2.85;;;;;;;;;;5091459;28;20031;-73
2023/06/02 00:40:13;;;;;;;9.50;3.08;;;;;;;;;;5091390;28;20389;-73
2023/06/02 00:42:39;;;;;;;13.70;3.72;;;;;;;;;;5091332;28;20385;-74
2023/06/02 00:45:05;;;;;;;15.23;4.40;;;;;;;;;;5092223;28;20024;-73
2023/06/02 00:47:31;;;;;;;13.60;3.63;;;;;;;;;;5092429;28;20048;-75
2023/06/02 00:49:57;;;;;;;14.05;4.82;;;;;;;;;;5092764;28;20031;-74
2023/06/02 00:52:23;;;;;;;14.68;5.25;;;;;;;;;;5092689;28;20054;-74
2023/06/02 00:54:49;;;;;;;13.77;6.10;;;;;;;;;;5092613;28;20068;-74
2023/06/02 00:57:16;;;;;;;13.05;5.97;;;;;;;;;;5092613;28;20024;-73
2023/06/02 00:59:43;;;;;;;13.80;6.32;;;;;;;;;;5092461;28;20024;-74
2023/06/02 01:02:10;;;;;;;15.35;6.68;;;;;;;;;;5092424;28;20029;-74
2023/06/02 01:04:37;;;;;;;20.45;7.57;;;;;;;;;;5092424;28;20036;-73
2023/06/02 01:07:04;;;;;;;15.23;7.55;;;;;;;;;;5092515;28;20393;-73
2023/06/02 01:09:30;;;;;;;17.15;7.40;;;;;;;;;;5092488;28;20028;-75
2023/06/02 01:11:56;;;;;;;16.33;7.43;;;;;;;;;;5092488;28;20031;-74
2023/06/02 01:14:22;;;;;;;16.25;7.28;;;;;;;;;;5091290;28;20365;-74
2023/06/02 01:16:49;;;;;;;18.75;7.72;;;;;;;;;;5092243;28;20768;-74
2023/06/02 01:19:21;;;;;;;13.27;7.28;;;;;;;;;;5092427;28;20067;-72
2023/06/02 01:21:57;;;;;;;14.15;7.15;;;;;;;;;;5092469;28;20098;-72
2023/06/02 01:24:35;;;;;;;16.65;6.88;;;;;;;;;;5092409;28;20058;-73
2023/06/02 01:27:07;;;;;;;12.13;6.30;;;;;;;;;;5092408;28;20028;-73
2023/06/02 01:29:35;;;;;;;13.48;6.55;;;;;;;;;;5092313;28;20032;-73
2023/06/02 01:32:24;;;;;;;18.13;7.10;;;;;;;;;;5091779;28;20035;-72
2023/06/02 01:34:59;;;;;;;13.18;7.07;;;;;;;;;;5091832;28;20115;-73
2023/06/02 01:37:26;;;;;;;14.95;6.68;;;;;;;;;;5092242;28;20115;-74
2023/06/02 01:39:53;;;;;;;16.65;7.40;;;;;;;;;;5107185;28;20043;-74
2023/06/02 01:42:20;;;;;;;18.23;6.50;;;;;;;;;;5112598;28;20480;-72
2023/06/02 01:44:46;;;;;;;17.50;7.30;;;;;;;;;;5112352;28;20077;-72
2023/06/02 01:47:12;;;;;;;13.80;6.47;;;;;;;;;;5112265;28;20048;-74
2023/06/02 01:49:37;;;;;;;15.13;6.68;;;;;;;;;;5112445;28;20102;-73
2023/06/02 01:52:03;;;;;;;17.83;6.78;;;;;;;;;;5115324;28;20019;-73
2023/06/02 01:54:28;;;;;;;16.02;6.78;;;;;;;;;;5116155;28;20473;-73
2023/06/02 01:56:54;;;;;;;14.18;5.70;;;;;;;;;;5116249;28;20478;-74
2023/06/02 01:59:20;;;;;;;13.15;5.30;;;;;;;;;;5115912;28;20480;-73
2023/06/02 02:01:45;;;;;;;11.90;5.07;;;;;;;;;;5116061;28;20028;-73
2023/06/02 02:04:11;;;;;;;10.70;4.82;;;;;;;;;;5116131;28;20024;-71
2023/06/02 02:06:37;;;;;;;12.13;5.47;;;;;;;;;;5116055;28;20023;-73
2023/06/02 02:09:03;;;;;;;11.82;4.80;;;;;;;;;;5116035;28;20559;-70
2023/06/02 02:11:29;;;;;;;10.15;5.00;;;;;;;;;;5116005;28;20047;-73
2023/06/02 02:13:55;;;;;;;9.57;4.78;;;;;;;;;;5115636;28;20481;-74
2023/06/02 02:16:21;;;;;;;10.38;4.88;;;;;;;;;;5115764;28;20046;-74
2023/06/02 02:18:47;;;;;;;12.15;5.13;;;;;;;;;;5115780;28;20161;-74
2023/06/02 02:21:13;;;;;;;18.40;5.72;;;;;;;;;;5115797;28;20042;-73
2023/06/02 02:23:39;;;;;;;12.07;5.18;;;;;;;;;;5115603;28;20089;-72
2023/06/02 02:26:05;;;;;;;10.32;4.80;;;;;;;;;;5115567;28;20441;-69
2023/06/02 02:28:31;;;;;;;12.43;5.22;;;;;;;;;;5115340;28;20023;-73
2023/06/02 02:30:56;;;;;;;10.60;4.97;;;;;;;;;;5106121;28;20028;-73
2023/06/02 02:33:22;;;;;;;14.88;4.50;;;;;;;;;;5093819;28;20036;-72
2023/06/02 02:35:47;;;;;;;17.27;5.38;;;;;;;;;;5094947;28;20027;-73
2023/06/02 02:38:13;;;;;;;10.93;4.65;;;;;;;;;;5096092;28;20032;-74
2023/06/02 02:40:38;;;;;;;10.52;4.35;;;;;;;;;;5115227;28;20020;-74
2023/06/02 02:43:04;;;;;;;7.65;4.20;;;;;;;;;;5115101;28;20098;-74
2023/06/02 02:45:30;;;;;;;7.38;3.67;;;;;;;;;;5114926;28;20076;-73
2023/06/02 02:47:56;;;;;;;9.48;3.60;;;;;;;;;;5115132;28;20516;-73
2023/06/02 02:50:21;;;;;;;8.27;3.58;;;;;;;;;;5115103;28;20119;-74
2023/06/02 02:52:46;;;;;;;6.05;3.53;;;;;;;;;;5115176;28;20103;-72
2023/06/02 02:55:12;;;;;;;10.65;3.78;;;;;;;;;;5114915;28;20028;-73
2023/06/02 02:57:37;;;;;;;6.38;3.35;;;;;;;;;;5114652;28;20373;-74
2023/06/02 03:00:10;;;;;;;7.05;2.88;;;;;;;;;;5114995;28;20024;-72
2023/06/02 03:02:36;;;;;;;10.57;4.45;;;;;;;;;;5114430;28;20028;-74
2023/06/02 03:05:02;;;;;;;5.18;2.83;;;;;;;;;;5114817;28;20472;-74
2023/06/02 03:07:29;;;;;;;7.93;2.38;;;;;;;;;;5114981;28;20051;-70
2023/06/02 03:09:55;;;;;;;5.35;2.42;;;;;;;;;;5114629;28;20051;-73
2023/06/02 03:12:20;;;;;;;7.22;2.60;;;;;;;;;;5114622;28;20034;-74
2023/06/02 03:14:46;;;;;;;6.53;2.47;;;;;;;;;;5114570;28;20065;-72
2023/06/02 03:17:11;;;;;;;5.38;2.40;;;;;;;;;;5114549;28;20016;-73
2023/06/02 03:19:37;;;;;;;5.95;2.40;;;;;;;;;;5114683;28;20473;-73
2023/06/02 03:22:03;;;;;;;5.30;2.20;;;;;;;;;;5114591;28;20031;-70
2023/06/02 03:24:28;;;;;;;7.18;2.20;;;;;;;;;;5114175;28;20027;-73
2023/06/02 03:26:55;;;;;;;6.40;2.40;;;;;;;;;;5114332;28;20024;-73
2023/06/02 03:29:21;;;;;;;6.63;2.38;;;;;;;;;;5114365;28;20016;-73
2023/06/02 03:31:47;;;;;;;3.70;1.85;;;;;;;;;;5097789;28;20618;-73
2023/06/02 03:34:12;;;;;;;12.07;2.70;;;;;;;;;;5093986;28;20031;-72
2023/06/02 03:36:38;;;;;;;6.80;2.20;;;;;;;;;;5093655;28;20473;-75
2023/06/02 03:39:09;;;;;;;7.00;2.50;;;;;;;;;;5101796;28;20038;-70
2023/06/02 03:41:36;;;;;;;5.95;2.25;;;;;;;;;;5114295;28;20081;-69
2023/06/02 03:44:02;;;;;;;6.95;2.00;;;;;;;;;;5114116;28;20361;-70
2023/06/02 03:46:28;;;;;;;5.43;1.75;;;;;;;;;;5113904;28;20043;-70
2023/06/02 03:48:53;;;;;;;4.45;1.98;;;;;;;;;;5112552;28;20050;-73
2023/06/02 03:51:19;;;;;;;9.68;2.13;;;;;;;;;;5114003;28;20019;-73
2023/06/02 03:53:44;;;;;;;5.70;1.92;;;;;;;;;;5114102;28;20115;-72
2023/06/02 03:56:11;;;;;;;4.03;1.75;;;;;;;;;;5113584;28;20119;-72
2023/06/02 03:58:36;;;;;;;6.22;1.73;;;;;;;;;;5113784;28;20119;-69
2023/06/02 04:01:02;;;;;;;5.45;1.88;;;;;;;;;;5113717;28;20016;-73
2023/06/02 04:03:29;;;;;;;5.30;1.80;;;;;;;;;;5113797;28;20015;-73
2023/06/02 04:05:54;;;;;;;5.88;1.58;;;;;;;;;;5113651;28;20457;-72
2023/06/02 04:08:20;;;;;;;6.13;1.85;;;;;;;;;;5113480;28;20048;-72
2023/06/02 04:10:46;;;;;;;7.18;2.22;;;;;;;;;;5112966;28;20059;-73
2023/06/02 04:13:11;;;;;;;4.90;1.90;;;;;;;;;;5112869;28;20031;-71
2023/06/02 04:15:37;;;;;;;7.18;1.88;;;;;;;;;;5113461;28;20016;-71
2023/06/02 04:18:03;;;;;;;4.72;1.70;;;;;;;;;;5113548;28;20023;-73
2023/06/02 04:20:29;;;;;;;7.38;1.88;;;;;;;;;;5113448;28;20024;-73
2023/06/02 04:22:54;;;;;;;4.75;1.48;;;;;;;;;;5113515;28;20107;-74
2023/06/02 04:25:20;;;;;;;6.13;1.83;;;;;;;;;;5113183;28;20421;-74
2023/06/02 04:27:45;;;;;;;6.65;1.73;;;;;;;;;;5113285;28;20469;-74
2023/06/02 04:30:10;;;;;;;4.25;1.45;;;;;;;;;;5100110;28;20035;-75
2023/06/02 04:32:36;;;;;;;5.20;1.30;;;;;;;;;;5092662;28;20077;-74
2023/06/02 04:35:02;;;;;;;2.60;1.50;;;;;;;;;;5092913;28;20032;-74
2023/06/02 04:37:28;;;;;;;4.18;2.00;;;;;;;;;;5092820;28;20089;-73
2023/06/02 04:39:55;;;;;;;7.07;1.70;;;;;;;;;;5107603;28;20432;-73
2023/06/02 04:42:20;;;;;;;7.45;1.77;;;;;;;;;;5113179;28;20383;-74
2023/06/02 04:44:47;;;;;;;5.32;1.55;;;;;;;;;;5113121;28;20020;-74
2023/06/02 04:47:13;;;;;;;4.18;1.52;;;;;;;;;;5112864;28;20476;-73
2023/06/02 04:49:38;;;;;;;6.30;1.88;;;;;;;;;;5113003;28;20027;-73
2023/06/02 04:52:08;;;;;;;5.15;1.50;;;;;;;;;;5112907;28;20479;-72
2023/06/02 04:54:35;;;;;;;6.05;1.50;;;;;;;;;;5112790;28;20466;-73
2023/06/02 04:57:00;;;;;;;5.10;1.33;;;;;;;;;;5112758;28;20042;-73
2023/06/02 04:59:27;;;;;;;3.40;1.20;;;;;;;;;;5112744;28;20027;-73
2023/06/02 05:01:52;;;;;;;5.85;1.58;;;;;;;;;;5112995;28;20032;-74
2023/06/02 05:04:19;;;;;;;4.30;1.40;;;;;;;;;;5112938;28;20080;-72
2023/06/02 05:06:45;;;;;;;9.02;1.50;;;;;;;;;;5112952;28;20062;-73
2023/06/02 05:09:11;;;;;;;3.72;1.27;;;;;;;;;;5112576;28;20031;-74
2023/06/02 05:11:36;;;;;;;5.70;1.52;;;;;;;;;;5112659;28;20027;-73
2023/06/02 05:14:02;;;;;;;7.25;1.70;;;;;;;;;;5112658;28;20019;-72
2023/06/02 05:16:29;;;;;;;7.50;1.40;;;;;;;;;;5112759;28;20027;-71
2023/06/02 05:18:55;;;;;;;6.47;1.40;;;;;;;;;;5112736;28;20025;-70
2023/06/02 05:21:20;;;;;;;5.15;1.52;;;;;;;;;;5112801;28;20081;-74
2023/06/02 05:23:46;;;;;;;7.88;1.45;;;;;;;;;;5112422;28;20106;-73
2023/06/02 05:26:11;;;;;;;13.50;2.08;;;;;;;;;;5115848;28;20457;-74
2023/06/02 05:28:37;;;;;;;7.53;1.80;;;;;;;;;;5116658;28;20081;-73
2023/06/02 05:31:03;;;;;;;6.78;1.52;;;;;;;;;;5106437;28;20028;-74
2023/06/02 05:33:28;;;;;;;8.07;1.65;;;;;;;;;;5096378;28;20020;-73
2023/06/02 05:35:54;;;;;;;4.47;1.38;;;;;;;;;;5096107;28;20071;-73
2023/06/02 05:38:19;;;;;;;6.35;1.42;;;;;;;;;;5097999;28;20028;-72
2023/06/02 05:40:45;;;;;;;4.90;1.35;;;;;;;;;;5116762;28;20026;-72
2023/06/02 05:43:10;;;;;;;5.22;1.30;;;;;;;;;;5116399;28;20453;-71
2023/06/02 05:45:35;;;;;;;5.93;1.50;;;;;;;;;;5116527;28;20110;-73
2023/06/02 05:48:01;;;;;;;6.90;1.63;;;;;;;;;;5116183;28;20123;-73
2023/06/02 05:50:26;;;;;;;8.23;1.50;;;;;;;;;;5116221;28;20385;-74
2023/06/02 05:52:52;;;;;;;5.07;1.63;;;;;;;;;;5116102;28;20024;-70
2023/06/02 05:55:17;;;;;;;7.05;1.80;;;;;;;;;;5100276;28;20062;-73
2023/06/02 05:57:43;;;;;;;6.57;1.75;;;;;;;;;;5084763;28;20027;-70
2023/06/02 06:00:09;;;;;;;5.55;1.50;;;;;;;;;;5104099;28;20020;-73
2023/06/02 06:02:34;;;;;;;7.90;1.48;;;;;;;;;;5096987;28;20028;-72
2023/06/02 06:05:00;;;;;;;7.22;1.50;;;;;;;;;;5095408;28;20030;-70
2023/06/02 06:07:25;;;;;;;4.10;1.40;;;;;;;;;;5094827;28;20098;-73
2023/06/02 06:09:51;;;;;;;6.82;1.45;;;;;;;;;;5095407;28;20614;-72
2023/06/02 06:12:16;;;;;;;4.47;1.40;;;;;;;;;;5104328;28;20103;-72
2023/06/02 06:14:42;;;;;;;4.25;1.15;;;;;;;;;;5100734;27;20028;-68
2023/06/02 06:17:07;;;;;;;5.03;1.95;;;;;;;;;;5093778;28;20039;-71
2023/06/02 06:19:33;;;;;;;3.28;1.30;;;;;;;;;;5095362;28;20457;-72
2023/06/02 06:21:58;;;;;;;4.65;1.20;;;;;;;;;;5096858;28;20031;-71
2023/06/02 06:24:24;;;;;;;4.70;1.10;;;;;;;;;;5093717;28;20031;-72
2023/06/02 06:26:49;;;;;;;3.83;1.40;;;;;;;;;;5094581;28;20095;-70
2023/06/02 06:29:15;;;;;;;4.32;1.05;;;;;;;;;;5096538;28;20062;-73
2023/06/02 06:31:41;;;;;;;4.32;1.35;;;;;;;;;;5091050;28;20041;-69
2023/06/02 06:34:08;;;;;;;5.88;1.40;;;;;;;;;;5090408;28;20028;-71
2023/06/02 06:36:34;;;;;;;6.90;1.38;;;;;;;;;;5077001;28;20036;-66
2023/06/02 06:39:00;;;;;;;3.08;1.02;;;;;;;;;;5100767;28;20427;-68
2023/06/02 06:41:27;;;;;;;5.50;1.20;;;;;;;;;;5115232;28;20020;-69
2023/06/02 06:43:52;;;;;;;3.97;1.17;;;;;;;;;;5095365;28;20077;-70
2023/06/02 06:46:18;;;;;;;3.00;1.17;;;;;;;;;;5094084;28;20124;-70
2023/06/02 06:48:43;;;;;;;9.05;1.15;;;;;;;;;;5094308;28;20075;-71
2023/06/02 06:51:09;;;;;;;4.93;1.17;;;;;;;;;;5094476;28;20032;-73
2023/06/02 06:53:34;;;;;;;4.55;1.50;;;;;;;;;;5094537;28;20085;-70
2023/06/02 06:56:02;;;;;;;3.13;0.88;;;;;;;;;;5093164;28;20567;-68
2023/06/02 06:58:28;;;;;;;3.33;1.08;;;;;;;;;;5094063;28;20497;-68
2023/06/02 07:00:53;;;;;;;4.40;1.30;;;;;;;;;;5094348;28;20022;-72
2023/06/02 07:03:18;;;;;;;3.97;1.27;;;;;;;;;;5101330;28;20016;-71
2023/06/02 07:05:45;;;;;;;3.75;0.95;;;;;;;;;;5114610;27;20107;-70
2023/06/02 07:08:12;;;;;;;3.83;1.20;;;;;;;;;;5110622;28;20028;-67
2023/06/02 07:10:37;;;;;;;5.70;1.20;;;;;;;;;;5093628;28;20043;-72
2023/06/02 07:13:03;;;;;;;3.00;1.00;;;;;;;;;;5094003;28;20480;-66
2023/06/02 07:15:28;;;;;;;2.85;1.20;;;;;;;;;;5093952;28;20355;-63
2023/06/02 07:17:53;;;;;;;3.65;1.00;;;;;;;;;;5093784;28;20062;-72
2023/06/02 07:20:19;;;;;;;7.85;1.10;;;;;;;;;;5093783;28;20023;-71
2023/06/02 07:22:45;;;;;;;2.15;1.00;;;;;;;;;;5093656;28;20385;-70
2023/06/02 07:25:10;;;;;;;3.50;1.30;;;;;;;;;;5093693;28;20074;-65
2023/06/02 07:27:36;;;;;;;8.23;1.60;;;;;;;;;;5093734;28;20027;-70
2023/06/02 07:30:02;;;;;;;4.40;1.17;;;;;;;;;;5093635;28;20032;-69
2023/06/02 07:32:28;;;;;;;9.65;1.67;;;;;;;;;;5093369;28;20024;-70
2023/06/02 07:34:53;;;;;;;4.90;1.40;;;;;;;;;;5093562;28;20383;-71
2023/06/02 07:37:19;;;;;;;3.58;1.20;;;;;;;;;;5093390;28;20032;-71
2023/06/02 07:39:44;;;;;;;5.18;1.20;;;;;;;;;;5107339;28;20023;-65
2023/06/02 07:42:09;;;;;;;2.88;1.02;;;;;;;;;;5111809;27;20028;-71
2023/06/02 07:44:35;;;;;;;5.45;0.95;;;;;;;;;;5093188;28;20481;-65
2023/06/02 07:47:01;;;;;;;1.50;0.70;;;;;;;;;;5093031;28;20048;-67
2023/06/02 07:49:26;;;;;;;2.65;1.00;;;;;;;;;;5092429;28;20030;-71
2023/06/02 07:51:52;;;;;;;3.25;0.98;;;;;;;;;;5093123;28;20048;-64
2023/06/02 07:54:17;;;;;;;4.43;1.30;;;;;;;;;;5093409;28;20020;-69
2023/06/02 07:56:42;;;;;;;5.78;1.10;;;;;;;;;;5093030;28;20040;-72
2023/06/02 07:59:11;;;;;;;4.40;1.10;;;;;;;;;;5092907;28;20032;-60
2023/06/02 08:01:38;;;;;;;6.32;1.10;;;;;;;;;;5093078;28;20047;-70
2023/06/02 08:04:03;;;;;;;2.15;1.10;;;;;;;;;;5106769;28;20034;-72
2023/06/02 08:06:29;;;;;;;2.70;0.90;;;;;;;;;;5113128;28;20023;-67
2023/06/02 08:08:54;;;;;;;5.00;1.20;;;;;;;;;;5113308;28;20104;-62
2023/06/02 08:11:20;;;;;;;2.22;0.90;;;;;;;;;;5113194;28;20036;-61
2023/06/02 08:13:45;;;;;;;3.67;1.00;;;;;;;;;;5113387;28;20020;-61
2023/06/02 08:16:11;;;;;;;4.60;1.20;;;;;;;;;;5111774;28;20108;-62
2023/06/02 08:18:36;;;;;;;2.60;0.98;;;;;;;;;;5092637;28;20059;-63
2023/06/02 08:21:04;;;;;;;2.90;0.90;;;;;;;;;;5092932;28;20103;-63
2023/06/02 08:23:30;;;;;;;4.20;1.08;;;;;;;;;;5092849;28;20090;-61
2023/06/02 08:25:58;;;;;;;1.88;0.90;;;;;;;;;;5092761;28;20043;-61
2023/06/02 08:28:25;;;;;;;5.78;1.23;;;;;;;;;;5092484;28;20338;-62
2023/06/02 08:30:51;;;;;;;2.17;0.93;;;;;;;;;;5092391;28;20442;-61
2023/06/02 08:33:18;;;;;;;4.32;1.10;;;;;;;;;;5092447;28;20390;-61
2023/06/02 08:35:46;;;;;;;4.60;1.10;;;;;;;;;;5092425;28;20111;-61
2023/06/02 08:38:16;;;;;;;4.05;0.90;;;;;;;;;;5093286;28;20016;-63
2023/06/02 08:40:42;;;;;;;2.53;1.00;;;;;;;;;;5112844;28;20106;-66
2023/06/02 08:43:09;;;;;;;3.50;1.10;;;;;;;;;;5112912;28;20173;-62
2023/06/02 08:45:35;;;;;;;3.42;1.00;;;;;;;;;;5112674;28;20110;-64
2023/06/02 08:48:05;;;;;;;4.18;1.20;;;;;;;;;;5112628;28;20043;-61
2023/06/02 08:50:38;;;;;;;4.03;1.27;;;;;;;;;;5104006;28;20110;-65
2023/06/02 08:53:06;;;;;;;3.38;1.10;;;;;;;;;;5092429;28;20157;-61
2023/06/02 08:55:32;;;;;;;4.85;1.20;;;;;;;;;;5092702;28;20416;-61
2023/06/02 08:57:58;;;;;;;2.95;1.08;;;;;;;;;;5092470;28;20024;-62
2023/06/02 09:00:24;;;;;;;3.08;1.20;;;;;;;;;;5095659;28;20020;-61
2023/06/02 09:02:50;;;;;;;5.65;1.15;;;;;;;;;;5102319;28;20038;-65
2023/06/02 09:05:16;;;;;;;6.20;0.90;;;;;;;;;;5119623;27;20039;-61
2023/06/02 09:07:48;;;;;;;6.43;1.00;;;;;;;;;;5119819;27;20058;-61
2023/06/02 09:10:45;;;;;;;2.47;1.00;;;;;;;;;;5119540;27;20024;-59
2023/06/02 09:13:28;;;;;;;9.43;1.05;;;;;;;;;;5106881;27;20098;-62
2023/06/02 09:16:01;;;;;;;4.55;0.90;;;;;;;;;;5119170;27;20027;-61
2023/06/02 09:18:28;;;;;;;4.82;1.10;;;;;;;;;;5098993;27;20020;-61
2023/06/02 09:20:54;;;;;;;2.28;1.10;;;;;;;;;;5098826;28;20493;-60
2023/06/02 09:23:20;;;;;;;5.13;1.00;;;;;;;;;;5099004;28;20381;-61
2023/06/02 09:25:46;;;;;;;2.75;0.95;;;;;;;;;;5098838;28;20027;-61
2023/06/02 09:28:12;;;;;;;4.13;0.95;;;;;;;;;;5098744;28;20111;-59
2023/06/02 09:30:38;;;;;;;4.70;1.10;;;;;;;;;;5098370;28;20118;-59
2023/06/02 09:33:08;;;;;;;7.80;1.10;;;;;;;;;;5098710;28;20024;-59
2023/06/02 09:35:45;;;;;;;4.03;0.80;;;;;;;;;;5078503;28;20083;-65
2023/06/02 09:38:13;;;;;;;4.65;1.20;;;;;;;;;;5095874;28;20035;-65
2023/06/02 09:40:40;;;;;;;3.10;0.93;;;;;;;;;;5119085;27;20043;-62
2023/06/02 09:43:07;;;;;;;4.00;0.93;;;;;;;;;;5118749;27;20036;-61
2023/06/02 09:45:34;;;;;;;4.57;1.02;;;;;;;;;;5119167;27;20142;-62
2023/06/02 09:47:59;;;;;;;15.30;1.42;;;;;;;;;;5118694;27;20066;-62
2023/06/02 09:50:35;;;;;;;5.03;1.00;;;;;;;;;;5111042;27;20450;-63
2023/06/02 09:53:05;;;;;;;4.72;0.98;;;;;;;;;;5098734;28;20032;-66
2023/06/02 09:55:36;;;;;;;;;;;;;;;;;;5098950;28;20049;-61
2023/06/02 09:58:02;;;;;;;4.22;1.02;;;;;;;;;;5098414;28;19912;-63
2023/06/02 10:00:29;;;;;;;2.75;0.80;;;;;;;;;;5098237;28;20024;-68
2023/06/02 10:02:54;;;;;;;5.03;1.15;;;;;;;;;;5102515;28;20019;-62
2023/06/02 10:05:23;;;;;;;9.93;1.15;;;;;;;;;;5119168;27;20071;-68
2023/06/02 10:08:16;;;;;;;1.10;0.70;;;;;;;;;;5118632;27;20077;-61
2023/06/02 10:10:48;;;;;;;4.05;0.80;;;;;;;;;;5118285;27;20111;-64
2023/06/02 10:13:47;;;;;;;1.52;0.80;;;;;;;;;;5114866;28;20019;-64
2023/06/02 10:16:40;;;;;;;3.58;0.82;;;;;;;;;;5114236;28;20031;-61
2023/06/02 10:19:08;;;;;;;3.90;0.80;;;;;;;;;;5095165;28;20107;-62
2023/06/02 10:22:04;;;;;;;1.80;0.82;;;;;;;;;;5095286;28;20039;-62
2023/06/02 10:24:48;;;;;;;5.68;0.90;;;;;;;;;;5094919;28;20127;-63
2023/06/02 10:27:22;;;;;;;3.95;1.00;;;;;;;;;;5094653;28;20028;-61
2023/06/02 10:29:54;;;;;;;7.13;1.17;;;;;;;;;;5094972;28;20016;-61
2023/06/02 10:32:21;;;;;;;7.95;1.77;;;;;;;;;;5094978;28;20115;-61
2023/06/02 10:34:55;;;;;;;2.05;0.73;;;;;;;;;;5094581;28;20028;-61
2023/06/02 10:37:22;;;;;;;5.75;1.38;;;;;;;;;;5094696;28;20040;-61
2023/06/02 10:39:51;;;;;;;3.45;1.25;;;;;;;;;;5108937;28;20031;-63
2023/06/02 10:42:17;;;;;;;5.93;0.80;;;;;;;;;;5115025;27;20028;-69
2023/06/02 10:44:47;;;;;;;4.78;0.82;;;;;;;;;;5114984;27;20023;-66
2023/06/02 10:47:18;;;;;;;4.97;0.90;;;;;;;;;;5114721;28;20044;-67
2023/06/02 10:50:03;;;;;;;1.55;0.90;;;;;;;;;;5112867;28;20062;-68
2023/06/02 10:52:31;;;;;;;2.88;0.77;;;;;;;;;;5094546;28;20494;-65
2023/06/02 10:55:12;;;;;;;3.05;0.90;;;;;;;;;;5094526;28;20039;-63
2023/06/02 10:58:03;;;;;;;3.53;0.88;;;;;;;;;;5094343;28;20067;-67
2023/06/02 11:00:44;;;;;;;2.95;0.80;;;;;;;;;;5094637;28;20028;-64
2023/06/02 11:03:27;;;;;;;1.73;0.70;;;;;;;;;;5100454;28;20244;-62
2023/06/02 11:06:19;;;;;;;8.30;1.52;;;;;;;;;;5114823;28;20026;-62
2023/06/02 11:08:46;;;;;;;5.40;1.10;;;;;;;;;;5114230;28;20085;-68
2023/06/02 11:11:14;;;;;;;3.47;0.85;;;;;;;;;;5114341;28;20076;-70
2023/06/02 11:13:58;;;;;;;4.00;0.90;;;;;;;;;;5114527;28;20099;-69
2023/06/02 11:16:28;;;;;;;1.92;0.80;;;;;;;;;;5111278;28;20071;-66
2023/06/02 11:18:53;;;;;;;;;;;;;;;;;;5094665;28;20024;-66
2023/06/02 11:21:28;;;;;;;8.75;1.10;;;;;;;;;;5094231;28;19908;-62
2023/06/02 11:23:54;;;;;;;3.83;1.10;;;;;;;;;;5094130;28;20103;-71
2023/06/02 11:26:23;;;;;;;2.47;0.70;;;;;;;;;;5093962;28;20042;-68
2023/06/02 11:28:49;;;;;;;3.20;0.70;;;;;;;;;;5093820;28;20020;-64
2023/06/02 11:31:22;;;;;;;6.00;0.93;;;;;;;;;;5093882;28;20028;-62
2023/06/02 11:33:49;;;;;;;3.25;0.77;;;;;;;;;;5093703;28;20091;-62
2023/06/02 11:36:25;;;;;;;1.92;0.80;;;;;;;;;;5082155;28;20123;-63
2023/06/02 11:38:50;;;;;;;2.50;0.90;;;;;;;;;;5099582;28;20031;-62
2023/06/02 11:41:18;;;;;;;9.75;1.05;;;;;;;;;;5114046;28;20034;-62
2023/06/02 11:43:46;;;;;;;3.08;0.90;;;;;;;;;;5113982;28;20026;-66
2023/06/02 11:46:13;;;;;;;2.60;0.85;;;;;;;;;;5105939;27;20497;-71
2023/06/02 11:48:40;;;;;;;3.80;1.00;;;;;;;;;;5090116;28;20074;-62
2023/06/02 11:51:07;;;;;;;5.40;1.10;;;;;;;;;;5091381;28;20032;-65
2023/06/02 11:53:33;;;;;;;3.38;0.73;;;;;;;;;;5091117;28;20069;-62
2023/06/02 11:56:00;;;;;;;18.45;2.95;;;;;;;;;;5091426;28;20197;-62
2023/06/02 11:58:29;;;;;;;7.57;1.70;;;;;;;;;;5091287;28;20592;-68
2023/06/02 12:01:09;;;;;;;7.63;1.45;;;;;;;;;;5091320;28;20050;-60
2023/06/02 12:03:34;;;;;;;2.60;0.77;;;;;;;;;;5100153;28;20023;-62
2023/06/02 12:06:14;;;;;;;8.48;0.80;;;;;;;;;;5098754;28;20028;-61
2023/06/02 12:08:39;;;;;;;28.40;5.13;;;;;;;;;;5089251;28;20024;-62
2023/06/02 12:11:15;;;;;;;5.88;1.35;;;;;;;;;;5089488;28;20542;-60
2023/06/02 12:13:41;;;;;;;2.70;0.60;;;;;;;;;;5089034;28;20034;-62
2023/06/02 12:16:24;;;;;;;1.98;0.70;;;;;;;;;;5089585;28;20115;-61
2023/06/02 12:18:50;;;;;;;2.40;0.63;;;;;;;;;;5090482;28;20428;-61
2023/06/02 12:21:28;;;;;;;5.68;1.67;;;;;;;;;;5091021;28;20034;-62
2023/06/02 12:23:57;;;;;;;8.95;1.10;;;;;;;;;;5090475;28;20027;-61
2023/06/02 12:26:24;;;;;;;18.55;3.05;;;;;;;;;;5091257;28;20050;-69
2023/06/02 12:28:50;;;;;;;1.50;0.70;;;;;;;;;;5090797;28;20516;-64
2023/06/02 12:31:19;;;;;;;6.07;1.35;;;;;;;;;;5090928;28;20035;-65
2023/06/02 12:33:45;;;;;;;4.10;1.00;;;;;;;;;;5090860;28;20106;-62
2023/06/02 12:36:12;;;;;;;6.30;1.50;;;;;;;;;;5090153;28;20110;-63
2023/06/02 12:38:38;;;;;;;4.07;0.80;;;;;;;;;;5079399;28;20031;-66
2023/06/02 12:41:10;;;;;;;4.32;0.50;;;;;;;;;;5110865;28;20051;-67
2023/06/02 12:43:39;;;;;;;4.18;0.95;;;;;;;;;;5111076;28;20406;-61
2023/06/02 12:46:05;;;;;;;2.17;0.73;;;;;;;;;;5110690;28;20035;-62
2023/06/02 12:48:30;;;;;;;8.15;1.70;;;;;;;;;;5110850;28;20548;-67
2023/06/02 12:50:56;;;;;;;5.47;1.00;;;;;;;;;;5110713;28;20058;-61
2023/06/02 12:53:21;;;;;;;10.93;1.35;;;;;;;;;;5110729;28;20028;-60
2023/06/02 12:55:47;;;;;;;6.40;1.20;;;;;;;;;;5110737;28;20024;-67
2023/06/02 12:58:12;;;;;;;4.55;0.98;;;;;;;;;;5109499;28;20066;-64
2023/06/02 13:00:39;;;;;;;3.92;0.88;;;;;;;;;;5090173;28;20114;-61
2023/06/02 13:03:06;;;;;;;3.38;0.70;;;;;;;;;;5090206;28;20171;-70
2023/06/02 13:05:31;;;;;;;5.40;0.88;;;;;;;;;;5090274;28;20095;-67
2023/06/02 13:07:57;;;;;;;10.25;1.80;;;;;;;;;;5089995;28;20062;-61
2023/06/02 13:10:23;;;;;;;2.85;0.80;;;;;;;;;;5090239;28;20153;-61
2023/06/02 13:12:49;;;;;;;3.42;1.02;;;;;;;;;;5090228;28;20039;-61
2023/06/02 13:15:14;;;;;;;6.82;0.98;;;;;;;;;;5090008;28;20457;-62
2023/06/02 13:17:40;;;;;;;3.85;0.90;;;;;;;;;;5090039;28;20528;-61
2023/06/02 13:20:06;;;;;;;3.70;0.80;;;;;;;;;;5090173;28;20404;-65
2023/06/02 13:22:32;;;;;;;1.83;0.57;;;;;;;;;;5089924;28;20028;-70
2023/06/02 13:24:58;;;;;;;3.40;0.90;;;;;;;;;;5090327;28;20116;-70
2023/06/02 13:27:24;;;;;;;1.65;0.65;;;;;;;;;;5089847;28;20452;-61
2023/06/02 13:29:50;;;;;;;2.10;0.65;;;;;;;;;;5089905;28;20232;-64
2023/06/02 13:32:16;;;;;;;3.72;1.20;;;;;;;;;;5090142;28;20024;-62
2023/06/02 13:34:53;;;;;;;5.13;0.95;;;;;;;;;;5090011;28;20024;-64
2023/06/02 13:37:18;;;;;;;2.70;0.90;;;;;;;;;;5089716;28;20063;-64
2023/06/02 13:39:44;;;;;;;3.33;1.13;;;;;;;;;;5103680;28;20058;-66
2023/06/02 13:42:09;;;;;;;2.13;1.08;;;;;;;;;;5108788;28;20032;-68
2023/06/02 13:44:34;;;;;;;2.25;1.10;;;;;;;;;;5110162;28;20079;-71
2023/06/02 13:47:00;;;;;;;4.43;1.08;;;;;;;;;;5111288;28;20035;-72
2023/06/02 13:49:25;;;;;;;4.10;0.80;;;;;;;;;;5107587;28;20024;-71
2023/06/02 13:51:51;;;;;;;1.10;0.65;;;;;;;;;;5093456;28;20094;-65
2023/06/02 13:54:16;;;;;;;2.28;0.70;;;;;;;;;;5093720;28;20469;-71
2023/06/02 13:56:43;;;;;;;2.72;0.85;;;;;;;;;;5093566;28;20039;-62
2023/06/02 13:59:09;;;;;;;3.90;0.95;;;;;;;;;;5093273;28;20481;-63
2023/06/02 14:01:35;;;;;;;1.77;0.73;;;;;;;;;;5093795;28;20141;-62
2023/06/02 14:04:00;;;;;;;3.70;0.77;;;;;;;;;;5093264;28;20541;-68
2023/06/02 14:06:26;;;;;;;1.75;0.60;;;;;;;;;;5093797;28;20031;-66
2023/06/02 14:08:52;;;;;;;2.83;0.80;;;;;;;;;;5093341;28;20474;-68
2023/06/02 14:11:18;;;;;;;3.20;1.05;;;;;;;;;;5093398;28;20630;-71
2023/06/02 14:13:43;;;;;;;2.53;0.80;;;;;;;;;;5093404;28;20020;-64
2023/06/02 14:16:09;;;;;;;4.47;0.75;;;;;;;;;;5093144;28;20090;-65
2023/06/02 14:18:34;;;;;;;5.05;0.80;;;;;;;;;;5092785;28;20028;-62
2023/06/02 14:21:00;;;;;;;4.93;0.80;;;;;;;;;;5093151;28;20050;-63
2023/06/02 14:23:25;;;;;;;2.05;0.80;;;;;;;;;;5093153;28;20042;-62
2023/06/02 14:25:51;;;;;;;3.42;0.93;;;;;;;;;;5093047;28;20024;-63
2023/06/02 14:28:16;;;;;;;2.03;0.90;;;;;;;;;;5092879;28;20212;-64
2023/06/02 14:30:42;;;;;;;2.08;0.82;;;;;;;;;;5092971;28;20028;-61
2023/06/02 14:33:08;;;;;;;4.57;0.90;;;;;;;;;;5092704;28;20385;-66
2023/06/02 14:35:33;;;;;;;2.95;0.82;;;;;;;;;;5092831;28;20028;-60
2023/06/02 14:37:59;;;;;;;3.33;0.80;;;;;;;;;;5091099;28;20031;-61
2023/06/02 14:40:24;;;;;;;6.60;0.90;;;;;;;;;;5112138;28;20533;-60
2023/06/02 14:42:49;;;;;;;1.58;0.65;;;;;;;;;;5113046;28;20501;-65